sensor_id;sensor_type;location;lat;lon;timestamp;P1;durP1;ratioP1;P2;durP2;ratioP2
10805;SDS011;5455;53.224;6.000;2023-10-08T00:01:30;1.87;;;0.10;;
10805;SDS011;5455;53.224;6.000;2023-10-08T00:04:00;0.50;;;0.10;;
10805;SDS011;5455;53.224;6.000;2023-10-08T00:06:31;0.43;;;0.10;;
10805;SDS011;5455;53.224;6.000;2023-10-08T00:08:59;0.93;;;0.10;;
10805;SDS011;5455;53.224;6.000;2023-10-08T00:11:27;0.30;;;0.10;;
10805;SDS011;5455;53.224;6.000;2023-10-08T00:13:56;0.20;;;0.10;;
10805;SDS011;5455;53.224;6.000;2023-10-08T00:16:23;0.80;;;0.17;;
10805;SDS011;5455;53.224;6.000;2023-10-08T00:18:50;1.03;;;0.10;;
10805;SDS011;5455;53.224;6.000;2023-10-08T00:21:19;0.53;;;0.00;;
10805;SDS011;5455;53.224;6.000;2023-10-08T00:23:55;1.40;;;0.10;;
10805;SDS011;5455;53.224;6.000;2023-10-08T00:26:29;0.00;;;0.00;;
10805;SDS011;5455;53.224;6.000;2023-10-08T00:29:04;2.10;;;0.10;;
10805;SDS011;5455;53.224;6.000;2023-10-08T00:31:43;0.23;;;0.10;;
10805;SDS011;5455;53.224;6.000;2023-10-08T00:34:16;0.67;;;0.10;;
10805;SDS011;5455;53.224;6.000;2023-10-08T00:36:47;1.47;;;0.20;;
10805;SDS011;5455;53.224;6.000;2023-10-08T00:39:14;1.03;;;0.10;;
10805;SDS011;5455;53.224;6.000;2023-10-08T00:41:50;1.03;;;0.07;;
10805;SDS011;5455;53.224;6.000;2023-10-08T00:44:21;0.37;;;0.20;;
10805;SDS011;5455;53.224;6.000;2023-10-08T00:46:50;0.40;;;0.10;;
10805;SDS011;5455;53.224;6.000;2023-10-08T00:49:20;0.30;;;0.13;;
10805;SDS011;5455;53.224;6.000;2023-10-08T00:51:49;0.87;;;0.10;;
10805;SDS011;5455;53.224;6.000;2023-10-08T00:54:48;0.87;;;0.37;;
10805;SDS011;5455;53.224;6.000;2023-10-08T00:57:35;0.97;;;0.20;;
10805;SDS011;5455;53.224;6.000;2023-10-08T01:00:04;1.07;;;0.30;;
10805;SDS011;5455;53.224;6.000;2023-10-08T01:02:42;0.77;;;0.10;;
10805;SDS011;5455;53.224;6.000;2023-10-08T01:05:13;0.10;;;0.10;;
10805;SDS011;5455;53.224;6.000;2023-10-08T01:07:45;0.87;;;0.20;;
10805;SDS011;5455;53.224;6.000;2023-10-08T01:10:18;0.00;;;0.00;;
10805;SDS011;5455;53.224;6.000;2023-10-08T01:12:50;0.60;;;0.20;;
10805;SDS011;5455;53.224;6.000;2023-10-08T01:15:28;1.70;;;0.30;;
10805;SDS011;5455;53.224;6.000;2023-10-08T01:17:56;0.40;;;0.20;;
10805;SDS011;5455;53.224;6.000;2023-10-08T01:20:27;3.10;;;0.10;;
10805;SDS011;5455;53.224;6.000;2023-10-08T01:23:04;0.57;;;0.10;;
10805;SDS011;5455;53.224;6.000;2023-10-08T01:25:37;0.43;;;0.20;;
10805;SDS011;5455;53.224;6.000;2023-10-08T01:28:05;1.77;;;0.10;;
10805;SDS011;5455;53.224;6.000;2023-10-08T01:30:42;1.40;;;0.30;;
10805;SDS011;5455;53.224;6.000;2023-10-08T01:33:14;1.83;;;0.20;;
10805;SDS011;5455;53.224;6.000;2023-10-08T01:35:45;1.40;;;0.20;;
10805;SDS011;5455;53.224;6.000;2023-10-08T01:38:12;1.43;;;0.10;;
10805;SDS011;5455;53.224;6.000;2023-10-08T01:40:43;0.30;;;0.10;;
10805;SDS011;5455;53.224;6.000;2023-10-08T01:43:17;1.57;;;0.20;;
10805;SDS011;5455;53.224;6.000;2023-10-08T01:45:45;0.23;;;0.13;;
10805;SDS011;5455;53.224;6.000;2023-10-08T01:48:15;0.40;;;0.20;;
10805;SDS011;5455;53.224;6.000;2023-10-08T01:50:56;1.47;;;0.20;;
10805;SDS011;5455;53.224;6.000;2023-10-08T01:53:29;0.77;;;0.10;;
10805;SDS011;5455;53.224;6.000;2023-10-08T01:55:57;0.60;;;0.20;;
10805;SDS011;5455;53.224;6.000;2023-10-08T01:58:25;2.00;;;0.20;;
10805;SDS011;5455;53.224;6.000;2023-10-08T02:00:53;0.83;;;0.30;;
10805;SDS011;5455;53.224;6.000;2023-10-08T02:03:25;2.33;;;0.20;;
10805;SDS011;5455;53.224;6.000;2023-10-08T02:05:54;0.87;;;0.33;;
10805;SDS011;5455;53.224;6.000;2023-10-08T02:08:26;0.50;;;0.20;;
10805;SDS011;5455;53.224;6.000;2023-10-08T02:10:53;1.33;;;0.10;;
10805;SDS011;5455;53.224;6.000;2023-10-08T02:13:20;0.73;;;0.20;;
10805;SDS011;5455;53.224;6.000;2023-10-08T02:15:50;2.23;;;0.30;;
10805;SDS011;5455;53.224;6.000;2023-10-08T02:18:20;0.73;;;0.10;;
10805;SDS011;5455;53.224;6.000;2023-10-08T02:20:50;4.10;;;0.20;;
10805;SDS011;5455;53.224;6.000;2023-10-08T02:23:20;0.83;;;0.30;;
10805;SDS011;5455;53.224;6.000;2023-10-08T02:25:48;1.17;;;0.10;;
10805;SDS011;5455;53.224;6.000;2023-10-08T02:28:15;0.30;;;0.10;;
10805;SDS011;5455;53.224;6.000;2023-10-08T02:30:42;0.90;;;0.20;;
10805;SDS011;5455;53.224;6.000;2023-10-08T02:33:10;0.20;;;0.10;;
10805;SDS011;5455;53.224;6.000;2023-10-08T02:35:44;0.87;;;0.17;;
10805;SDS011;5455;53.224;6.000;2023-10-08T02:38:13;0.37;;;0.20;;
10805;SDS011;5455;53.224;6.000;2023-10-08T02:40:51;0.80;;;0.23;;
10805;SDS011;5455;53.224;6.000;2023-10-08T02:43:19;3.30;;;0.23;;
10805;SDS011;5455;53.224;6.000;2023-10-08T02:45:47;0.63;;;0.20;;
10805;SDS011;5455;53.224;6.000;2023-10-08T02:48:17;0.93;;;0.20;;
10805;SDS011;5455;53.224;6.000;2023-10-08T02:50:45;0.50;;;0.13;;
10805;SDS011;5455;53.224;6.000;2023-10-08T02:53:12;0.67;;;0.20;;
10805;SDS011;5455;53.224;6.000;2023-10-08T02:55:44;0.63;;;0.20;;
10805;SDS011;5455;53.224;6.000;2023-10-08T02:58:14;2.10;;;0.30;;
10805;SDS011;5455;53.224;6.000;2023-10-08T03:00:42;0.90;;;0.20;;
10805;SDS011;5455;53.224;6.000;2023-10-08T03:03:10;0.43;;;0.10;;
10805;SDS011;5455;53.224;6.000;2023-10-08T03:05:47;1.30;;;0.20;;
10805;SDS011;5455;53.224;6.000;2023-10-08T03:08:23;1.10;;;0.30;;
10805;SDS011;5455;53.224;6.000;2023-10-08T03:10:51;0.63;;;0.30;;
10805;SDS011;5455;53.224;6.000;2023-10-08T03:13:23;1.03;;;0.30;;
10805;SDS011;5455;53.224;6.000;2023-10-08T03:15:50;1.60;;;0.30;;
10805;SDS011;5455;53.224;6.000;2023-10-08T03:18:30;0.33;;;0.20;;
10805;SDS011;5455;53.224;6.000;2023-10-08T03:21:04;0.97;;;0.30;;
10805;SDS011;5455;53.224;6.000;2023-10-08T03:23:51;0.57;;;0.20;;
10805;SDS011;5455;53.224;6.000;2023-10-08T03:26:18;1.70;;;0.30;;
10805;SDS011;5455;53.224;6.000;2023-10-08T03:29:02;1.13;;;0.20;;
10805;SDS011;5455;53.224;6.000;2023-10-08T03:31:43;1.93;;;0.30;;
10805;SDS011;5455;53.224;6.000;2023-10-08T03:34:21;2.30;;;0.27;;
10805;SDS011;5455;53.224;6.000;2023-10-08T03:36:54;1.23;;;0.13;;
10805;SDS011;5455;53.224;6.000;2023-10-08T03:39:32;0.63;;;0.23;;
10805;SDS011;5455;53.224;6.000;2023-10-08T03:42:23;2.63;;;0.27;;
10805;SDS011;5455;53.224;6.000;2023-10-08T03:44:52;1.77;;;0.40;;
10805;SDS011;5455;53.224;6.000;2023-10-08T03:47:22;1.30;;;0.20;;
10805;SDS011;5455;53.224;6.000;2023-10-08T03:49:53;1.80;;;0.30;;
10805;SDS011;5455;53.224;6.000;2023-10-08T03:52:21;0.70;;;0.30;;
10805;SDS011;5455;53.224;6.000;2023-10-08T03:54:53;0.30;;;0.20;;
10805;SDS011;5455;53.224;6.000;2023-10-08T03:57:39;2.03;;;0.50;;
10805;SDS011;5455;53.224;6.000;2023-10-08T04:00:11;2.80;;;0.40;;
10805;SDS011;5455;53.224;6.000;2023-10-08T04:02:41;1.33;;;0.40;;
10805;SDS011;5455;53.224;6.000;2023-10-08T04:05:13;1.63;;;0.20;;
10805;SDS011;5455;53.224;6.000;2023-10-08T04:07:46;1.77;;;0.30;;
10805;SDS011;5455;53.224;6.000;2023-10-08T04:10:43;1.40;;;0.37;;
10805;SDS011;5455;53.224;6.000;2023-10-08T04:13:10;1.37;;;0.40;;
10805;SDS011;5455;53.224;6.000;2023-10-08T04:15:37;0.80;;;0.37;;
10805;SDS011;5455;53.224;6.000;2023-10-08T04:18:08;3.13;;;0.30;;
10805;SDS011;5455;53.224;6.000;2023-10-08T04:20:36;1.30;;;0.40;;
10805;SDS011;5455;53.224;6.000;2023-10-08T04:23:25;1.20;;;0.40;;
10805;SDS011;5455;53.224;6.000;2023-10-08T04:25:53;2.30;;;0.70;;
10805;SDS011;5455;53.224;6.000;2023-10-08T04:28:21;3.53;;;0.80;;
10805;SDS011;5455;53.224;6.000;2023-10-08T04:30:48;3.60;;;0.90;;
10805;SDS011;5455;53.224;6.000;2023-10-08T04:33:17;1.50;;;1.00;;
10805;SDS011;5455;53.224;6.000;2023-10-08T04:35:46;4.83;;;0.90;;
10805;SDS011;5455;53.224;6.000;2023-10-08T04:38:23;2.20;;;0.73;;
10805;SDS011;5455;53.224;6.000;2023-10-08T04:40:55;3.33;;;0.80;;
10805;SDS011;5455;53.224;6.000;2023-10-08T04:43:28;4.87;;;0.80;;
10805;SDS011;5455;53.224;6.000;2023-10-08T04:45:58;6.30;;;1.17;;
10805;SDS011;5455;53.224;6.000;2023-10-08T04:48:26;2.20;;;0.57;;
10805;SDS011;5455;53.224;6.000;2023-10-08T04:50:59;3.73;;;0.90;;
10805;SDS011;5455;53.224;6.000;2023-10-08T04:53:28;5.33;;;0.73;;
10805;SDS011;5455;53.224;6.000;2023-10-08T04:56:04;3.73;;;0.70;;
10805;SDS011;5455;53.224;6.000;2023-10-08T04:58:33;1.67;;;0.53;;
10805;SDS011;5455;53.224;6.000;2023-10-08T05:01:04;5.40;;;0.57;;
10805;SDS011;5455;53.224;6.000;2023-10-08T05:03:51;4.00;;;0.53;;
10805;SDS011;5455;53.224;6.000;2023-10-08T05:06:26;5.07;;;0.60;;
10805;SDS011;5455;53.224;6.000;2023-10-08T05:09:33;3.57;;;0.67;;
10805;SDS011;5455;53.224;6.000;2023-10-08T05:12:05;7.03;;;0.90;;
10805;SDS011;5455;53.224;6.000;2023-10-08T05:14:55;4.23;;;0.60;;
10805;SDS011;5455;53.224;6.000;2023-10-08T05:17:40;4.53;;;1.13;;
10805;SDS011;5455;53.224;6.000;2023-10-08T05:20:30;2.83;;;0.60;;
10805;SDS011;5455;53.224;6.000;2023-10-08T05:23:11;3.17;;;0.60;;
10805;SDS011;5455;53.224;6.000;2023-10-08T05:25:56;4.90;;;0.83;;
10805;SDS011;5455;53.224;6.000;2023-10-08T05:28:33;3.83;;;0.77;;
10805;SDS011;5455;53.224;6.000;2023-10-08T05:31:28;4.37;;;0.60;;
10805;SDS011;5455;53.224;6.000;2023-10-08T05:34:13;3.30;;;0.60;;
10805;SDS011;5455;53.224;6.000;2023-10-08T05:36:50;5.50;;;0.57;;
10805;SDS011;5455;53.224;6.000;2023-10-08T05:39:37;4.53;;;0.80;;
10805;SDS011;5455;53.224;6.000;2023-10-08T05:42:05;3.70;;;0.87;;
10805;SDS011;5455;53.224;6.000;2023-10-08T05:44:40;3.93;;;1.00;;
10805;SDS011;5455;53.224;6.000;2023-10-08T05:47:13;4.23;;;0.60;;
10805;SDS011;5455;53.224;6.000;2023-10-08T05:50:05;4.73;;;0.70;;
10805;SDS011;5455;53.224;6.000;2023-10-08T05:52:45;3.60;;;0.73;;
10805;SDS011;5455;53.224;6.000;2023-10-08T05:55:25;4.63;;;0.87;;
10805;SDS011;5455;53.224;6.000;2023-10-08T05:57:55;3.57;;;0.70;;
10805;SDS011;5455;53.224;6.000;2023-10-08T06:00:40;2.93;;;0.70;;
10805;SDS011;5455;53.224;6.000;2023-10-08T06:03:17;4.70;;;1.03;;
10805;SDS011;5455;53.224;6.000;2023-10-08T06:06:05;2.57;;;0.60;;
10805;SDS011;5455;53.224;6.000;2023-10-08T06:08:43;5.40;;;0.63;;
10805;SDS011;5455;53.224;6.000;2023-10-08T06:11:37;3.50;;;0.90;;
10805;SDS011;5455;53.224;6.000;2023-10-08T06:14:11;3.03;;;0.70;;
10805;SDS011;5455;53.224;6.000;2023-10-08T06:16:57;2.47;;;0.57;;
10805;SDS011;5455;53.224;6.000;2023-10-08T06:19:51;2.83;;;0.70;;
10805;SDS011;5455;53.224;6.000;2023-10-08T06:22:21;1.53;;;0.37;;
10805;SDS011;5455;53.224;6.000;2023-10-08T06:24:52;4.23;;;0.77;;
10805;SDS011;5455;53.224;6.000;2023-10-08T06:27:39;5.10;;;0.70;;
10805;SDS011;5455;53.224;6.000;2023-10-08T06:30:07;2.20;;;0.63;;
10805;SDS011;5455;53.224;6.000;2023-10-08T06:32:44;4.10;;;0.67;;
10805;SDS011;5455;53.224;6.000;2023-10-08T06:35:15;3.27;;;0.63;;
10805;SDS011;5455;53.224;6.000;2023-10-08T06:37:45;3.00;;;0.60;;
10805;SDS011;5455;53.224;6.000;2023-10-08T06:40:16;4.23;;;0.87;;
10805;SDS011;5455;53.224;6.000;2023-10-08T06:43:01;4.97;;;0.90;;
10805;SDS011;5455;53.224;6.000;2023-10-08T06:45:41;1.80;;;0.77;;
10805;SDS011;5455;53.224;6.000;2023-10-08T06:48:10;2.63;;;0.77;;
10805;SDS011;5455;53.224;6.000;2023-10-08T06:50:45;3.43;;;0.70;;
10805;SDS011;5455;53.224;6.000;2023-10-08T06:53:12;3.73;;;1.33;;
10805;SDS011;5455;53.224;6.000;2023-10-08T06:55:41;2.87;;;0.70;;
10805;SDS011;5455;53.224;6.000;2023-10-08T06:58:08;2.20;;;0.67;;
10805;SDS011;5455;53.224;6.000;2023-10-08T07:00:36;5.00;;;0.70;;
10805;SDS011;5455;53.224;6.000;2023-10-08T07:03:08;2.63;;;0.60;;
10805;SDS011;5455;53.224;6.000;2023-10-08T07:05:37;2.10;;;0.43;;
10805;SDS011;5455;53.224;6.000;2023-10-08T07:08:08;2.83;;;0.50;;
10805;SDS011;5455;53.224;6.000;2023-10-08T07:10:35;4.30;;;0.90;;
10805;SDS011;5455;53.224;6.000;2023-10-08T07:13:02;2.37;;;0.80;;
10805;SDS011;5455;53.224;6.000;2023-10-08T07:15:30;2.07;;;0.70;;
10805;SDS011;5455;53.224;6.000;2023-10-08T07:17:57;2.87;;;0.60;;
10805;SDS011;5455;53.224;6.000;2023-10-08T07:20:36;3.77;;;0.60;;
10805;SDS011;5455;53.224;6.000;2023-10-08T07:23:08;4.73;;;0.90;;
10805;SDS011;5455;53.224;6.000;2023-10-08T07:25:56;2.83;;;0.67;;
10805;SDS011;5455;53.224;6.000;2023-10-08T07:28:40;5.83;;;0.83;;
10805;SDS011;5455;53.224;6.000;2023-10-08T07:31:14;7.93;;;1.17;;
10805;SDS011;5455;53.224;6.000;2023-10-08T07:33:48;4.20;;;0.93;;
10805;SDS011;5455;53.224;6.000;2023-10-08T07:36:23;3.87;;;1.03;;
10805;SDS011;5455;53.224;6.000;2023-10-08T07:38:51;4.37;;;1.20;;
10805;SDS011;5455;53.224;6.000;2023-10-08T07:41:19;4.33;;;1.00;;
10805;SDS011;5455;53.224;6.000;2023-10-08T07:43:47;2.17;;;0.80;;
10805;SDS011;5455;53.224;6.000;2023-10-08T07:46:25;3.63;;;0.80;;
10805;SDS011;5455;53.224;6.000;2023-10-08T07:48:53;5.13;;;0.80;;
10805;SDS011;5455;53.224;6.000;2023-10-08T07:51:21;3.47;;;0.67;;
10805;SDS011;5455;53.224;6.000;2023-10-08T07:53:51;3.70;;;0.80;;
10805;SDS011;5455;53.224;6.000;2023-10-08T07:56:25;2.33;;;1.10;;
10805;SDS011;5455;53.224;6.000;2023-10-08T07:58:52;5.00;;;0.80;;
10805;SDS011;5455;53.224;6.000;2023-10-08T08:01:23;3.50;;;1.10;;
10805;SDS011;5455;53.224;6.000;2023-10-08T08:03:51;2.47;;;0.60;;
10805;SDS011;5455;53.224;6.000;2023-10-08T08:06:19;8.63;;;1.30;;
10805;SDS011;5455;53.224;6.000;2023-10-08T08:08:46;2.83;;;0.70;;
10805;SDS011;5455;53.224;6.000;2023-10-08T08:11:13;4.13;;;0.70;;
10805;SDS011;5455;53.224;6.000;2023-10-08T08:13:44;6.87;;;1.00;;
10805;SDS011;5455;53.224;6.000;2023-10-08T08:16:12;5.40;;;1.23;;
10805;SDS011;5455;53.224;6.000;2023-10-08T08:18:44;2.63;;;0.70;;
10805;SDS011;5455;53.224;6.000;2023-10-08T08:21:12;3.57;;;0.73;;
10805;SDS011;5455;53.224;6.000;2023-10-08T08:23:44;2.27;;;0.60;;
10805;SDS011;5455;53.224;6.000;2023-10-08T08:26:18;3.47;;;0.70;;
10805;SDS011;5455;53.224;6.000;2023-10-08T08:28:57;3.70;;;0.70;;
10805;SDS011;5455;53.224;6.000;2023-10-08T08:31:29;4.90;;;1.03;;
10805;SDS011;5455;53.224;6.000;2023-10-08T08:34:02;2.17;;;0.70;;
10805;SDS011;5455;53.224;6.000;2023-10-08T08:36:35;4.43;;;0.67;;
10805;SDS011;5455;53.224;6.000;2023-10-08T08:39:05;4.20;;;0.80;;
10805;SDS011;5455;53.224;6.000;2023-10-08T08:41:38;2.80;;;0.87;;
10805;SDS011;5455;53.224;6.000;2023-10-08T08:44:05;4.53;;;0.93;;
10805;SDS011;5455;53.224;6.000;2023-10-08T08:46:34;3.87;;;0.90;;
10805;SDS011;5455;53.224;6.000;2023-10-08T08:49:04;4.53;;;0.80;;
10805;SDS011;5455;53.224;6.000;2023-10-08T08:51:35;3.23;;;1.03;;
10805;SDS011;5455;53.224;6.000;2023-10-08T08:54:02;6.47;;;1.37;;
10805;SDS011;5455;53.224;6.000;2023-10-08T08:56:33;5.83;;;1.10;;
10805;SDS011;5455;53.224;6.000;2023-10-08T08:59:06;5.03;;;1.00;;
10805;SDS011;5455;53.224;6.000;2023-10-08T09:01:38;2.13;;;0.57;;
10805;SDS011;5455;53.224;6.000;2023-10-08T09:04:07;1.83;;;0.50;;
10805;SDS011;5455;53.224;6.000;2023-10-08T09:06:34;4.57;;;0.90;;
10805;SDS011;5455;53.224;6.000;2023-10-08T09:09:04;3.60;;;0.87;;
10805;SDS011;5455;53.224;6.000;2023-10-08T09:11:49;3.23;;;1.10;;
10805;SDS011;5455;53.224;6.000;2023-10-08T09:14:22;4.50;;;0.80;;
10805;SDS011;5455;53.224;6.000;2023-10-08T09:16:55;6.97;;;1.73;;
10805;SDS011;5455;53.224;6.000;2023-10-08T09:19:23;8.97;;;1.50;;
10805;SDS011;5455;53.224;6.000;2023-10-08T09:22:07;10.50;;;2.73;;
10805;SDS011;5455;53.224;6.000;2023-10-08T09:24:36;4.43;;;0.97;;
10805;SDS011;5455;53.224;6.000;2023-10-08T09:27:07;2.37;;;0.70;;
10805;SDS011;5455;53.224;6.000;2023-10-08T09:29:41;4.20;;;0.63;;
10805;SDS011;5455;53.224;6.000;2023-10-08T09:32:11;3.80;;;0.57;;
10805;SDS011;5455;53.224;6.000;2023-10-08T09:34:53;4.87;;;1.30;;
10805;SDS011;5455;53.224;6.000;2023-10-08T09:37:21;2.17;;;0.70;;
10805;SDS011;5455;53.224;6.000;2023-10-08T09:39:49;3.40;;;1.10;;
10805;SDS011;5455;53.224;6.000;2023-10-08T09:42:18;6.13;;;1.07;;
10805;SDS011;5455;53.224;6.000;2023-10-08T09:44:49;4.13;;;0.73;;
10805;SDS011;5455;53.224;6.000;2023-10-08T09:47:19;7.17;;;0.97;;
10805;SDS011;5455;53.224;6.000;2023-10-08T09:52:17;5.03;;;0.70;;
10805;SDS011;5455;53.224;6.000;2023-10-08T09:54:49;5.30;;;0.90;;
10805;SDS011;5455;53.224;6.000;2023-10-08T09:57:23;3.67;;;1.90;;
10805;SDS011;5455;53.224;6.000;2023-10-08T09:59:53;9.47;;;3.17;;
10805;SDS011;5455;53.224;6.000;2023-10-08T10:02:21;3.67;;;1.10;;
10805;SDS011;5455;53.224;6.000;2023-10-08T10:04:51;6.60;;;0.77;;
10805;SDS011;5455;53.224;6.000;2023-10-08T10:07:21;3.50;;;0.90;;
10805;SDS011;5455;53.224;6.000;2023-10-08T10:09:49;4.40;;;0.83;;
10805;SDS011;5455;53.224;6.000;2023-10-08T10:12:18;3.80;;;0.80;;
10805;SDS011;5455;53.224;6.000;2023-10-08T10:14:53;6.03;;;0.90;;
10805;SDS011;5455;53.224;6.000;2023-10-08T10:17:26;7.30;;;0.77;;
10805;SDS011;5455;53.224;6.000;2023-10-08T10:20:10;1.93;;;0.63;;
10805;SDS011;5455;53.224;6.000;2023-10-08T10:22:42;6.17;;;0.80;;
10805;SDS011;5455;53.224;6.000;2023-10-08T10:25:11;3.93;;;0.97;;
10805;SDS011;5455;53.224;6.000;2023-10-08T10:30:21;4.17;;;0.80;;
10805;SDS011;5455;53.224;6.000;2023-10-08T10:32:54;4.13;;;1.00;;
10805;SDS011;5455;53.224;6.000;2023-10-08T10:35:21;5.77;;;0.90;;
10805;SDS011;5455;53.224;6.000;2023-10-08T10:37:50;2.77;;;1.07;;
10805;SDS011;5455;53.224;6.000;2023-10-08T10:40:22;6.90;;;1.10;;
10805;SDS011;5455;53.224;6.000;2023-10-08T10:42:56;10.77;;;1.93;;
10805;SDS011;5455;53.224;6.000;2023-10-08T10:45:24;4.50;;;1.00;;
10805;SDS011;5455;53.224;6.000;2023-10-08T10:48:06;4.30;;;0.73;;
10805;SDS011;5455;53.224;6.000;2023-10-08T10:50:56;7.03;;;0.90;;
10805;SDS011;5455;53.224;6.000;2023-10-08T10:53:44;6.77;;;0.97;;
10805;SDS011;5455;53.224;6.000;2023-10-08T10:56:16;4.17;;;0.80;;
10805;SDS011;5455;53.224;6.000;2023-10-08T10:58:59;2.67;;;0.90;;
10805;SDS011;5455;53.224;6.000;2023-10-08T11:01:31;7.13;;;1.10;;
10805;SDS011;5455;53.224;6.000;2023-10-08T11:04:11;6.10;;;1.03;;
10805;SDS011;5455;53.224;6.000;2023-10-08T11:06:46;4.80;;;1.07;;
10805;SDS011;5455;53.224;6.000;2023-10-08T11:09:17;5.13;;;0.77;;
10805;SDS011;5455;53.224;6.000;2023-10-08T11:12:02;7.17;;;1.20;;
10805;SDS011;5455;53.224;6.000;2023-10-08T11:14:39;3.13;;;1.07;;
10805;SDS011;5455;53.224;6.000;2023-10-08T11:17:16;3.23;;;0.93;;
10805;SDS011;5455;53.224;6.000;2023-10-08T11:19:47;6.77;;;0.70;;
10805;SDS011;5455;53.224;6.000;2023-10-08T11:22:15;6.67;;;1.03;;
10805;SDS011;5455;53.224;6.000;2023-10-08T11:24:46;3.93;;;0.90;;
10805;SDS011;5455;53.224;6.000;2023-10-08T11:27:16;7.50;;;1.67;;
10805;SDS011;5455;53.224;6.000;2023-10-08T11:29:56;6.67;;;1.83;;
10805;SDS011;5455;53.224;6.000;2023-10-08T11:32:25;6.10;;;0.90;;
10805;SDS011;5455;53.224;6.000;2023-10-08T11:34:57;3.70;;;0.83;;
10805;SDS011;5455;53.224;6.000;2023-10-08T11:37:31;2.43;;;0.57;;
10805;SDS011;5455;53.224;6.000;2023-10-08T11:40:02;4.07;;;1.10;;
10805;SDS011;5455;53.224;6.000;2023-10-08T11:42:44;6.17;;;1.07;;
10805;SDS011;5455;53.224;6.000;2023-10-08T11:45:11;4.30;;;1.57;;
10805;SDS011;5455;53.224;6.000;2023-10-08T11:47:45;4.13;;;0.70;;
10805;SDS011;5455;53.224;6.000;2023-10-08T11:50:12;2.70;;;0.90;;
10805;SDS011;5455;53.224;6.000;2023-10-08T11:52:45;6.23;;;1.57;;
10805;SDS011;5455;53.224;6.000;2023-10-08T11:55:13;5.23;;;1.23;;
10805;SDS011;5455;53.224;6.000;2023-10-08T11:57:46;6.87;;;0.80;;
10805;SDS011;5455;53.224;6.000;2023-10-08T12:00:17;3.83;;;0.97;;
10805;SDS011;5455;53.224;6.000;2023-10-08T12:02:51;6.10;;;0.57;;
10805;SDS011;5455;53.224;6.000;2023-10-08T12:05:22;5.07;;;0.93;;
10805;SDS011;5455;53.224;6.000;2023-10-08T12:07:51;2.63;;;0.70;;
10805;SDS011;5455;53.224;6.000;2023-10-08T12:10:19;1.77;;;0.80;;
10805;SDS011;5455;53.224;6.000;2023-10-08T12:12:49;5.90;;;1.10;;
10805;SDS011;5455;53.224;6.000;2023-10-08T12:15:19;5.53;;;0.70;;
10805;SDS011;5455;53.224;6.000;2023-10-08T12:17:47;2.50;;;0.57;;
10805;SDS011;5455;53.224;6.000;2023-10-08T12:20:36;4.77;;;0.80;;
10805;SDS011;5455;53.224;6.000;2023-10-08T12:23:11;2.83;;;1.13;;
10805;SDS011;5455;53.224;6.000;2023-10-08T12:25:40;2.47;;;0.83;;
10805;SDS011;5455;53.224;6.000;2023-10-08T12:28:19;3.83;;;1.00;;
10805;SDS011;5455;53.224;6.000;2023-10-08T12:30:46;10.17;;;1.33;;
10805;SDS011;5455;53.224;6.000;2023-10-08T12:33:13;4.50;;;1.00;;
10805;SDS011;5455;53.224;6.000;2023-10-08T12:35:43;6.23;;;0.97;;
10805;SDS011;5455;53.224;6.000;2023-10-08T12:38:11;4.00;;;1.70;;
10805;SDS011;5455;53.224;6.000;2023-10-08T12:40:42;5.40;;;1.20;;
10805;SDS011;5455;53.224;6.000;2023-10-08T12:43:23;3.97;;;1.33;;
10805;SDS011;5455;53.224;6.000;2023-10-08T12:45:54;5.10;;;1.07;;
10805;SDS011;5455;53.224;6.000;2023-10-08T12:48:26;6.30;;;0.93;;
10805;SDS011;5455;53.224;6.000;2023-10-08T12:50:54;3.53;;;0.73;;
10805;SDS011;5455;53.224;6.000;2023-10-08T12:53:27;1.77;;;0.63;;
10805;SDS011;5455;53.224;6.000;2023-10-08T12:56:01;6.47;;;0.90;;
10805;SDS011;5455;53.224;6.000;2023-10-08T12:58:42;2.57;;;0.60;;
10805;SDS011;5455;53.224;6.000;2023-10-08T13:01:15;4.80;;;0.80;;
10805;SDS011;5455;53.224;6.000;2023-10-08T13:03:45;6.30;;;0.90;;
10805;SDS011;5455;53.224;6.000;2023-10-08T13:06:16;3.53;;;0.63;;
10805;SDS011;5455;53.224;6.000;2023-10-08T13:08:57;5.80;;;0.90;;
10805;SDS011;5455;53.224;6.000;2023-10-08T13:11:26;3.17;;;0.77;;
10805;SDS011;5455;53.224;6.000;2023-10-08T13:13:56;3.17;;;0.80;;
10805;SDS011;5455;53.224;6.000;2023-10-08T13:16:24;2.53;;;0.83;;
10805;SDS011;5455;53.224;6.000;2023-10-08T13:18:53;5.87;;;0.87;;
10805;SDS011;5455;53.224;6.000;2023-10-08T13:21:23;6.30;;;0.90;;
10805;SDS011;5455;53.224;6.000;2023-10-08T13:23:52;6.10;;;0.70;;
10805;SDS011;5455;53.224;6.000;2023-10-08T13:26:19;3.43;;;0.93;;
10805;SDS011;5455;53.224;6.000;2023-10-08T13:28:49;2.87;;;0.60;;
10805;SDS011;5455;53.224;6.000;2023-10-08T13:31:17;5.87;;;1.00;;
10805;SDS011;5455;53.224;6.000;2023-10-08T13:33:46;1.53;;;0.40;;
10805;SDS011;5455;53.224;6.000;2023-10-08T13:36:16;5.87;;;0.83;;
10805;SDS011;5455;53.224;6.000;2023-10-08T13:38:45;2.73;;;0.70;;
10805;SDS011;5455;53.224;6.000;2023-10-08T13:41:13;3.83;;;0.70;;
10805;SDS011;5455;53.224;6.000;2023-10-08T13:43:48;4.67;;;1.43;;
10805;SDS011;5455;53.224;6.000;2023-10-08T13:46:20;6.53;;;0.77;;
10805;SDS011;5455;53.224;6.000;2023-10-08T13:48:51;3.60;;;0.60;;
10805;SDS011;5455;53.224;6.000;2023-10-08T13:51:19;3.87;;;0.90;;
10805;SDS011;5455;53.224;6.000;2023-10-08T13:53:51;3.97;;;0.67;;
10805;SDS011;5455;53.224;6.000;2023-10-08T13:56:20;3.77;;;0.93;;
10805;SDS011;5455;53.224;6.000;2023-10-08T13:58:52;3.23;;;0.80;;
10805;SDS011;5455;53.224;6.000;2023-10-08T14:01:30;2.77;;;0.70;;
10805;SDS011;5455;53.224;6.000;2023-10-08T14:04:01;4.20;;;1.17;;
10805;SDS011;5455;53.224;6.000;2023-10-08T14:06:36;4.73;;;0.90;;
10805;SDS011;5455;53.224;6.000;2023-10-08T14:09:07;2.60;;;0.73;;
10805;SDS011;5455;53.224;6.000;2023-10-08T14:11:38;3.47;;;0.90;;
10805;SDS011;5455;53.224;6.000;2023-10-08T14:14:05;2.77;;;0.50;;
10805;SDS011;5455;53.224;6.000;2023-10-08T14:16:39;4.03;;;0.90;;
10805;SDS011;5455;53.224;6.000;2023-10-08T14:19:09;2.57;;;0.73;;
10805;SDS011;5455;53.224;6.000;2023-10-08T14:21:42;2.97;;;0.70;;
10805;SDS011;5455;53.224;6.000;2023-10-08T14:24:17;5.97;;;1.20;;
10805;SDS011;5455;53.224;6.000;2023-10-08T14:26:44;4.73;;;0.80;;
10805;SDS011;5455;53.224;6.000;2023-10-08T14:29:18;4.33;;;0.73;;
10805;SDS011;5455;53.224;6.000;2023-10-08T14:31:46;5.03;;;0.70;;
10805;SDS011;5455;53.224;6.000;2023-10-08T14:34:16;7.63;;;0.80;;
10805;SDS011;5455;53.224;6.000;2023-10-08T14:36:43;3.63;;;1.23;;
10805;SDS011;5455;53.224;6.000;2023-10-08T14:39:29;2.40;;;0.87;;
10805;SDS011;5455;53.224;6.000;2023-10-08T14:42:16;1.43;;;0.63;;
10805;SDS011;5455;53.224;6.000;2023-10-08T14:45:02;7.60;;;0.93;;
10805;SDS011;5455;53.224;6.000;2023-10-08T14:47:38;3.53;;;0.70;;
10805;SDS011;5455;53.224;6.000;2023-10-08T14:50:06;4.03;;;0.80;;
10805;SDS011;5455;53.224;6.000;2023-10-08T14:52:43;3.00;;;0.77;;
10805;SDS011;5455;53.224;6.000;2023-10-08T14:55:11;6.57;;;0.90;;
10805;SDS011;5455;53.224;6.000;2023-10-08T14:57:39;3.90;;;0.93;;
10805;SDS011;5455;53.224;6.000;2023-10-08T15:00:08;4.10;;;0.70;;
10805;SDS011;5455;53.224;6.000;2023-10-08T15:02:37;4.13;;;0.70;;
10805;SDS011;5455;53.224;6.000;2023-10-08T15:05:05;3.23;;;0.67;;
10805;SDS011;5455;53.224;6.000;2023-10-08T15:07:33;4.50;;;1.13;;
10805;SDS011;5455;53.224;6.000;2023-10-08T15:10:01;4.20;;;0.80;;
10805;SDS011;5455;53.224;6.000;2023-10-08T15:12:28;4.93;;;0.87;;
10805;SDS011;5455;53.224;6.000;2023-10-08T15:14:55;2.67;;;0.90;;
10805;SDS011;5455;53.224;6.000;2023-10-08T15:17:22;5.33;;;0.97;;
10805;SDS011;5455;53.224;6.000;2023-10-08T15:19:49;4.50;;;0.80;;
10805;SDS011;5455;53.224;6.000;2023-10-08T15:22:18;5.47;;;0.90;;
10805;SDS011;5455;53.224;6.000;2023-10-08T15:24:45;3.37;;;0.70;;
10805;SDS011;5455;53.224;6.000;2023-10-08T15:27:12;4.00;;;0.73;;
10805;SDS011;5455;53.224;6.000;2023-10-08T15:29:39;5.03;;;0.63;;
10805;SDS011;5455;53.224;6.000;2023-10-08T15:32:06;4.40;;;0.80;;
10805;SDS011;5455;53.224;6.000;2023-10-08T15:34:33;3.97;;;0.77;;
10805;SDS011;5455;53.224;6.000;2023-10-08T15:37:06;5.00;;;0.90;;
10805;SDS011;5455;53.224;6.000;2023-10-08T15:39:33;5.97;;;0.80;;